createdAt,value
2023-05-20T00:02:07.868Z,3.80
2023-05-20T00:04:38.851Z,3.43
2023-05-20T00:07:10.746Z,3.50
2023-05-20T00:09:41.030Z,3.83
2023-05-20T00:12:11.094Z,3.57
2023-05-20T00:14:40.150Z,3.67
2023-05-20T00:17:11.588Z,3.10
2023-05-20T00:19:40.762Z,3.10
2023-05-20T00:22:10.221Z,3.90
2023-05-20T00:24:42.133Z,3.47
2023-05-20T00:27:13.107Z,4.10
2023-05-20T00:29:41.674Z,3.80
2023-05-20T00:32:11.013Z,3.10
2023-05-20T00:34:39.760Z,3.13
2023-05-20T00:37:08.497Z,2.80
2023-05-20T00:39:37.018Z,2.50
2023-05-20T00:42:06.165Z,2.70
2023-05-20T00:44:36.615Z,3.30
2023-05-20T00:47:06.282Z,2.83
2023-05-20T00:49:35.747Z,2.57
2023-05-20T00:52:04.589Z,2.90
2023-05-20T00:54:34.423Z,2.90
2023-05-20T00:57:04.169Z,3.07
2023-05-20T00:59:33.045Z,2.43
2023-05-20T01:02:08.278Z,3.10
2023-05-20T01:04:38.363Z,2.97
2023-05-20T01:07:09.008Z,2.67
2023-05-20T01:09:38.098Z,2.37
2023-05-20T01:12:16.423Z,2.53
2023-05-20T01:14:51.373Z,2.53
2023-05-20T01:17:23.229Z,2.80
2023-05-20T01:19:54.690Z,2.60
2023-05-20T01:22:27.934Z,3.30
2023-05-20T01:24:57.199Z,2.77
2023-05-20T01:27:30.633Z,2.83
2023-05-20T01:30:00.913Z,3.00
2023-05-20T01:32:37.089Z,3.33
2023-05-20T01:35:08.255Z,2.13
2023-05-20T01:37:42.285Z,2.60
2023-05-20T01:40:15.759Z,2.60
2023-05-20T01:42:53.664Z,2.80
2023-05-20T01:45:23.206Z,3.10
2023-05-20T01:47:52.589Z,3.60
2023-05-20T01:50:23.670Z,2.93
2023-05-20T01:52:54.068Z,3.13
2023-05-20T01:55:27.596Z,3.27
2023-05-20T01:57:56.843Z,3.73
2023-05-20T02:00:26.892Z,3.80
2023-05-20T02:02:56.545Z,3.50
2023-05-20T02:05:26.394Z,3.27
2023-05-20T02:07:56.554Z,2.70
2023-05-20T02:10:25.421Z,3.70
2023-05-20T02:12:55.375Z,3.50
2023-05-20T02:15:24.000Z,2.90
2023-05-20T02:17:54.500Z,3.37
2023-05-20T02:20:23.101Z,2.50
2023-05-20T02:22:51.898Z,3.47
2023-05-20T02:25:22.441Z,3.13
2023-05-20T02:27:51.549Z,3.30
2023-05-20T02:30:21.967Z,3.43
2023-05-20T02:32:52.373Z,2.80
2023-05-20T02:35:21.354Z,2.93
2023-05-20T02:37:50.342Z,2.77
2023-05-20T02:40:19.596Z,3.17
2023-05-20T02:42:50.983Z,3.40
2023-05-20T02:45:22.473Z,3.20
2023-05-20T02:47:53.420Z,3.03
2023-05-20T02:50:22.808Z,3.50
2023-05-20T02:52:51.429Z,2.90
2023-05-20T02:55:21.636Z,3.90
2023-05-20T02:57:52.453Z,3.97
2023-05-20T03:00:22.799Z,3.23
2023-05-20T03:02:51.626Z,3.60
2023-05-20T03:05:20.669Z,3.90
2023-05-20T03:07:49.269Z,2.90
2023-05-20T03:10:19.729Z,4.00
2023-05-20T03:12:48.492Z,3.03
2023-05-20T03:15:18.846Z,3.00
2023-05-20T03:17:48.676Z,3.80
2023-05-20T03:20:17.769Z,3.20
2023-05-20T03:22:49.475Z,2.67
2023-05-20T03:25:18.347Z,3.53
2023-05-20T03:27:47.613Z,3.57
2023-05-20T03:30:18.139Z,3.00
2023-05-20T03:32:49.191Z,3.70
2023-05-20T03:35:20.661Z,3.53
2023-05-20T03:37:51.909Z,3.57
2023-05-20T03:40:27.460Z,3.30
2023-05-20T03:42:57.838Z,2.83
2023-05-20T03:45:29.745Z,3.47
2023-05-20T03:48:06.740Z,3.53
2023-05-20T03:50:37.472Z,3.80
2023-05-20T03:53:08.592Z,3.00
2023-05-20T03:55:42.462Z,4.13
2023-05-20T03:58:18.701Z,3.80
2023-05-20T04:00:49.207Z,3.40
2023-05-20T04:03:19.117Z,3.90
2023-05-20T04:05:50.963Z,4.13
2023-05-20T04:08:26.253Z,3.40
2023-05-20T04:10:58.154Z,5.10
2023-05-20T04:13:27.435Z,3.80
2023-05-20T04:15:57.570Z,3.10
2023-05-20T04:18:29.852Z,2.90
2023-05-20T04:21:00.213Z,3.90
2023-05-20T04:23:29.389Z,3.20
2023-05-20T04:26:02.277Z,4.00
2023-05-20T04:28:34.215Z,4.00
2023-05-20T04:31:05.733Z,3.80
2023-05-20T04:33:38.064Z,3.73
2023-05-20T04:36:12.501Z,3.80
2023-05-20T04:38:44.902Z,3.47
2023-05-20T04:41:14.032Z,3.80
2023-05-20T04:43:42.974Z,3.67
2023-05-20T04:46:14.285Z,3.27
2023-05-20T04:48:44.735Z,3.83
2023-05-20T04:51:15.116Z,4.37
2023-05-20T04:53:45.937Z,3.90
2023-05-20T04:56:16.833Z,3.77
2023-05-20T04:58:47.489Z,4.23
2023-05-20T05:01:18.961Z,3.93
2023-05-20T05:03:48.071Z,3.70
2023-05-20T05:06:17.200Z,5.33
2023-05-20T05:08:46.140Z,4.10
2023-05-20T05:11:15.173Z,4.27
2023-05-20T05:13:46.269Z,4.07
2023-05-20T05:16:20.361Z,4.27
2023-05-20T05:18:49.599Z,4.43
2023-05-20T05:21:19.488Z,4.33
2023-05-20T05:23:50.505Z,4.00
2023-05-20T05:26:19.649Z,4.00
2023-05-20T05:28:48.496Z,3.70
2023-05-20T05:31:18.583Z,4.57
2023-05-20T05:33:47.280Z,4.27
2023-05-20T05:36:18.168Z,3.77
2023-05-20T05:38:47.018Z,4.00
2023-05-20T05:41:17.407Z,4.50
2023-05-20T05:43:48.402Z,5.80
2023-05-20T05:46:19.418Z,4.40
2023-05-20T05:48:50.542Z,4.50
2023-05-20T05:51:20.125Z,5.10
2023-05-20T05:53:50.327Z,5.27
2023-05-20T05:56:21.726Z,4.83
2023-05-20T05:58:51.945Z,5.00
2023-05-20T06:01:22.628Z,4.60
2023-05-20T06:03:51.506Z,3.93
2023-05-20T06:06:21.185Z,4.23
2023-05-20T06:08:50.297Z,5.10
2023-05-20T06:11:20.884Z,5.90
2023-05-20T06:13:49.483Z,4.80
2023-05-20T06:16:21.412Z,5.37
2023-05-20T06:18:52.726Z,5.43
2023-05-20T06:21:22.972Z,5.43
2023-05-20T06:23:52.533Z,4.83
2023-05-20T06:26:21.469Z,4.80
2023-05-20T06:28:50.414Z,5.10
2023-05-20T06:31:20.116Z,4.93
2023-05-20T06:33:50.900Z,5.40
2023-05-20T06:36:19.937Z,5.00
2023-05-20T06:38:49.350Z,5.03
2023-05-20T06:41:19.189Z,5.40
2023-05-20T06:43:51.197Z,5.03
2023-05-20T06:46:40.633Z,4.77
2023-05-20T06:49:15.489Z,5.67
2023-05-20T06:51:44.722Z,5.00
2023-05-20T06:54:14.089Z,4.93
2023-05-20T06:56:48.654Z,4.67
2023-05-20T06:59:17.517Z,4.60
2023-05-20T07:01:46.624Z,4.80
2023-05-20T07:04:18.174Z,4.20
2023-05-20T07:06:47.080Z,5.23
2023-05-20T07:09:17.138Z,5.87
2023-05-20T07:11:48.558Z,5.47
2023-05-20T07:14:19.058Z,4.63
2023-05-20T07:16:50.170Z,4.50
2023-05-20T07:19:21.517Z,4.60
2023-05-20T07:21:51.803Z,5.20
2023-05-20T07:24:40.503Z,4.53
2023-05-20T07:27:10.056Z,4.20
2023-05-20T07:29:39.899Z,5.10
2023-05-20T07:32:13.041Z,4.60
2023-05-20T07:34:44.153Z,4.40
2023-05-20T07:37:14.990Z,5.13
2023-05-20T07:39:44.508Z,3.80
2023-05-20T07:42:13.053Z,4.63
2023-05-20T07:44:46.036Z,4.33
2023-05-20T07:47:15.855Z,4.03
2023-05-20T07:49:47.516Z,4.70
2023-05-20T07:52:16.394Z,5.17
2023-05-20T07:54:45.747Z,4.57
2023-05-20T07:57:14.526Z,4.23
2023-05-20T07:59:45.443Z,4.33
2023-05-20T08:02:14.602Z,4.50
2023-05-20T08:04:43.326Z,4.17
2023-05-20T08:07:13.288Z,4.23
2023-05-20T08:09:49.474Z,4.30
2023-05-20T08:12:18.590Z,4.60
2023-05-20T08:14:47.406Z,4.17
2023-05-20T08:17:16.532Z,5.20
2023-05-20T08:19:45.862Z,4.57
2023-05-20T08:22:17.641Z,4.30
2023-05-20T08:24:47.371Z,3.80
2023-05-20T08:27:17.464Z,4.63
2023-05-20T08:29:46.910Z,4.13
2023-05-20T08:32:15.903Z,4.07
2023-05-20T08:34:44.611Z,3.97
2023-05-20T08:37:13.416Z,3.60
2023-05-20T08:39:45.554Z,4.80
2023-05-20T08:42:15.184Z,4.27
2023-05-20T08:44:47.886Z,4.60
2023-05-20T08:47:16.622Z,4.40
2023-05-20T08:49:45.769Z,3.97
2023-05-20T08:52:16.549Z,4.20
2023-05-20T08:54:50.600Z,4.37
2023-05-20T08:57:21.500Z,4.00
2023-05-20T08:59:51.701Z,3.70
2023-05-20T09:02:20.701Z,4.03
2023-05-20T09:04:49.460Z,3.53
2023-05-20T09:07:29.117Z,3.93
2023-05-20T09:10:00.351Z,4.70
2023-05-20T09:12:29.576Z,2.97
2023-05-20T09:14:58.270Z,4.30
2023-05-20T09:17:27.123Z,3.63
2023-05-20T09:19:57.720Z,4.30
2023-05-20T09:22:28.283Z,3.00
2023-05-20T09:24:58.877Z,3.60
2023-05-20T09:27:28.182Z,3.90
2023-05-20T09:29:57.025Z,3.50
2023-05-20T09:32:28.397Z,3.60
2023-05-20T09:34:59.055Z,3.80
2023-05-20T09:37:30.029Z,3.80
2023-05-20T09:40:07.247Z,3.77
2023-05-20T09:42:42.284Z,3.13
2023-05-20T09:45:11.602Z,4.03
2023-05-20T09:47:42.591Z,3.40
2023-05-20T09:50:13.071Z,3.30
2023-05-20T09:52:42.546Z,3.33
2023-05-20T09:55:15.255Z,4.23
2023-05-20T09:57:44.376Z,3.17
2023-05-20T10:00:17.417Z,3.40
2023-05-20T10:02:49.985Z,3.00
2023-05-20T10:05:22.057Z,3.03
2023-05-20T10:08:49.999Z,3.40
2023-05-20T10:11:30.078Z,3.90
2023-05-20T10:14:28.010Z,3.03
2023-05-20T10:17:10.291Z,3.97
2023-05-20T10:19:39.358Z,3.63
2023-05-20T10:22:11.414Z,3.83
2023-05-20T10:24:42.666Z,3.50
2023-05-20T10:27:15.178Z,3.87
2023-05-20T10:29:46.121Z,3.30
2023-05-20T10:32:28.751Z,3.30
2023-05-20T10:35:05.534Z,3.57
2023-05-20T10:37:43.869Z,3.87
2023-05-20T10:40:15.614Z,3.60
2023-05-20T10:42:46.587Z,3.57
2023-05-20T10:45:27.078Z,3.83
2023-05-20T10:47:57.978Z,3.37
2023-05-20T10:50:31.749Z,4.10
2023-05-20T10:53:13.352Z,2.53
2023-05-20T10:55:54.698Z,3.97
2023-05-20T10:58:27.069Z,3.53
2023-05-20T11:00:56.718Z,3.73
2023-05-20T11:03:26.283Z,3.93
2023-05-20T11:05:55.426Z,3.13
2023-05-20T11:08:31.035Z,3.43
2023-05-20T11:11:00.124Z,3.00
2023-05-20T11:13:30.651Z,3.77
2023-05-20T11:16:00.343Z,3.83
2023-05-20T11:18:32.041Z,3.40
2023-05-20T11:21:01.577Z,2.90
2023-05-20T11:23:31.360Z,3.00
2023-05-20T11:26:00.688Z,3.03
2023-05-20T11:28:33.280Z,2.80
2023-05-20T11:31:02.133Z,3.37
2023-05-20T11:33:32.849Z,3.50
2023-05-20T11:36:01.864Z,3.57
2023-05-20T11:38:32.951Z,3.20
2023-05-20T11:41:01.783Z,3.10
2023-05-20T11:43:36.428Z,4.30
2023-05-20T11:46:07.507Z,4.27
2023-05-20T11:48:36.064Z,3.40
2023-05-20T11:51:04.900Z,3.30
2023-05-20T11:53:33.558Z,3.40
2023-05-20T11:56:03.472Z,3.33
2023-05-20T11:58:35.870Z,3.10
2023-05-20T12:01:20.834Z,3.33
2023-05-20T12:03:51.580Z,3.33
2023-05-20T12:06:20.903Z,3.27
2023-05-20T12:08:49.995Z,3.63
2023-05-20T12:11:19.221Z,3.80
2023-05-20T12:13:50.717Z,3.63
2023-05-20T12:16:20.006Z,3.90
2023-05-20T12:18:50.936Z,3.80
2023-05-20T12:21:19.634Z,3.90
2023-05-20T12:23:49.341Z,3.10
2023-05-20T12:26:18.507Z,3.40
2023-05-20T12:28:47.127Z,3.03
2023-05-20T12:31:18.137Z,3.37
2023-05-20T12:33:47.800Z,3.60
2023-05-20T12:36:17.302Z,3.20
2023-05-20T12:38:47.014Z,3.10
2023-05-20T12:41:16.262Z,3.67
2023-05-20T12:43:45.154Z,3.40
2023-05-20T12:46:14.737Z,3.33
2023-05-20T12:48:44.922Z,3.60
2023-05-20T12:51:13.555Z,3.90
2023-05-20T12:53:42.148Z,3.47
2023-05-20T12:56:11.389Z,3.10
2023-05-20T12:58:40.795Z,2.90
2023-05-20T13:01:10.881Z,3.20
2023-05-20T13:03:39.777Z,3.00
2023-05-20T13:06:11.089Z,3.53
2023-05-20T13:08:39.567Z,3.63
2023-05-20T13:11:08.417Z,3.30
2023-05-20T13:13:36.911Z,3.00
2023-05-20T13:16:06.727Z,3.37
2023-05-20T13:18:35.615Z,3.27
2023-05-20T13:21:04.565Z,3.40
2023-05-20T13:23:34.603Z,3.27
2023-05-20T13:26:03.287Z,3.17
2023-05-20T13:28:31.864Z,3.40
2023-05-20T13:31:02.982Z,2.80
2023-05-20T13:33:31.867Z,2.57
2023-05-20T13:36:01.170Z,3.23
2023-05-20T13:38:31.829Z,3.20
2023-05-20T13:41:02.711Z,2.63
2023-05-20T13:43:33.234Z,3.57
2023-05-20T13:46:03.668Z,3.23
2023-05-20T13:48:33.470Z,2.90
2023-05-20T13:51:02.989Z,3.57
2023-05-20T13:53:35.105Z,3.40
2023-05-20T13:56:05.878Z,2.97
2023-05-20T13:58:34.476Z,2.80
2023-05-20T14:01:03.911Z,3.13
2023-05-20T14:03:34.766Z,3.73
2023-05-20T14:06:03.384Z,3.13
2023-05-20T14:08:32.359Z,3.30
2023-05-20T14:11:01.349Z,2.90
2023-05-20T14:13:33.753Z,3.33
2023-05-20T14:16:02.378Z,3.73
2023-05-20T14:18:31.171Z,3.30
2023-05-20T14:20:59.783Z,3.30
2023-05-20T14:23:28.247Z,3.33
2023-05-20T14:25:57.153Z,3.40
2023-05-20T14:28:26.014Z,3.47
2023-05-20T14:30:56.788Z,3.77
2023-05-20T14:33:25.593Z,3.53
2023-05-20T14:35:54.497Z,3.13
2023-05-20T14:38:23.633Z,2.50
2023-05-20T14:40:52.155Z,3.27
2023-05-20T14:43:21.812Z,3.63
2023-05-20T14:45:52.326Z,3.13
2023-05-20T14:48:22.509Z,3.30
2023-05-20T14:50:51.248Z,3.97
2023-05-20T14:53:20.171Z,3.20
2023-05-20T14:55:49.232Z,4.00
2023-05-20T14:58:17.757Z,3.93
2023-05-20T15:00:46.542Z,3.80
2023-05-20T15:03:15.195Z,3.70
2023-05-20T15:05:45.859Z,3.53
2023-05-20T15:08:14.989Z,3.30
2023-05-20T15:10:45.788Z,3.20
2023-05-20T15:13:14.669Z,3.00
2023-05-20T15:15:43.525Z,3.80
2023-05-20T15:18:13.159Z,2.93
2023-05-20T15:20:42.581Z,4.17
2023-05-20T15:23:13.204Z,3.30
2023-05-20T15:25:41.993Z,3.20
2023-05-20T15:28:13.249Z,3.07
2023-05-20T15:30:42.460Z,3.17
2023-05-20T15:33:11.945Z,3.30
2023-05-20T15:35:40.620Z,4.30
2023-05-20T15:38:09.479Z,3.73
2023-05-20T15:40:41.106Z,4.13
2023-05-20T15:43:10.634Z,3.73
2023-05-20T15:45:39.115Z,3.47
2023-05-20T15:48:08.522Z,3.87
2023-05-20T15:50:37.977Z,3.70
2023-05-20T15:53:09.064Z,3.40
2023-05-20T15:55:39.472Z,21.50
2023-05-20T15:58:08.367Z,4.20
2023-05-20T16:00:37.323Z,3.40
2023-05-20T16:03:07.306Z,2.80
2023-05-20T16:05:37.796Z,3.30
2023-05-20T16:08:06.670Z,3.47
2023-05-20T16:10:35.544Z,3.37
2023-05-20T16:13:06.238Z,3.57
2023-05-20T16:15:36.731Z,3.43
2023-05-20T16:18:06.200Z,3.10
2023-05-20T16:20:38.334Z,3.50
2023-05-20T16:23:08.799Z,3.70
2023-05-20T16:25:37.848Z,3.43
2023-05-20T16:28:08.363Z,5.23
2023-05-20T16:30:37.815Z,3.50
2023-05-20T16:33:08.444Z,3.90
2023-05-20T16:35:37.261Z,3.50
2023-05-20T16:38:06.316Z,4.10
2023-05-20T16:40:35.893Z,3.57
2023-05-20T16:43:04.485Z,3.80
2023-05-20T16:45:35.378Z,4.80
2023-05-20T16:48:04.109Z,4.40
2023-05-20T16:50:32.921Z,4.67
2023-05-20T16:53:01.958Z,4.63
2023-05-20T16:55:30.880Z,4.57
2023-05-20T16:57:59.215Z,5.70
2023-05-20T17:00:28.536Z,4.87
2023-05-20T17:02:58.816Z,5.90
2023-05-20T17:05:27.828Z,5.03
2023-05-20T17:08:00.380Z,5.50
2023-05-20T17:10:29.974Z,5.47
2023-05-20T17:12:58.820Z,6.37
2023-05-20T17:15:28.070Z,5.33
2023-05-20T17:17:58.094Z,5.90
2023-05-20T17:20:26.817Z,5.57
2023-05-20T17:22:56.143Z,6.10
2023-05-20T17:25:24.708Z,6.40
2023-05-20T17:27:54.998Z,6.63
2023-05-20T17:30:23.898Z,6.43
2023-05-20T17:32:54.098Z,5.90
2023-05-20T17:35:26.083Z,6.50
2023-05-20T17:37:55.384Z,7.13
2023-05-20T17:40:24.383Z,7.47
2023-05-20T17:42:53.210Z,6.37
2023-05-20T17:45:22.313Z,8.00
2023-05-20T17:47:50.976Z,7.00
2023-05-20T17:50:19.910Z,44.03
2023-05-20T17:52:50.939Z,12.87
2023-05-20T17:55:22.240Z,8.07
2023-05-20T17:57:52.252Z,6.40
2023-05-20T18:00:21.977Z,7.17
2023-05-20T18:02:50.759Z,7.53
2023-05-20T18:05:19.613Z,7.23
2023-05-20T18:07:50.108Z,7.33
2023-05-20T18:10:21.048Z,5.70
2023-05-20T18:12:49.682Z,8.23
2023-05-20T18:15:19.665Z,7.27
2023-05-20T18:17:49.352Z,7.20
2023-05-20T18:20:17.953Z,7.53
2023-05-20T18:22:49.615Z,6.63
2023-05-20T18:25:20.148Z,7.73
2023-05-20T18:27:49.034Z,6.83
2023-05-20T18:30:18.056Z,8.20
2023-05-20T18:32:46.724Z,7.53
2023-05-20T18:35:15.548Z,7.93
2023-05-20T18:37:44.209Z,7.30
2023-05-20T18:40:14.443Z,7.20
2023-05-20T18:42:44.939Z,9.23
2023-05-20T18:45:14.129Z,6.63
2023-05-20T18:47:43.655Z,6.40
2023-05-20T18:50:15.826Z,7.77
2023-05-20T18:52:46.462Z,7.40
2023-05-20T18:55:15.795Z,7.63
2023-05-20T18:57:46.317Z,7.27
2023-05-20T19:00:18.155Z,7.40
2023-05-20T19:02:47.772Z,6.37
2023-05-20T19:05:17.406Z,8.80
2023-05-20T19:07:46.540Z,8.40
2023-05-20T19:10:15.277Z,9.10
2023-05-20T19:12:45.381Z,40.97
2023-05-20T19:15:14.757Z,18.80
2023-05-20T19:17:44.765Z,9.50
2023-05-20T19:20:14.512Z,9.17
2023-05-20T19:22:44.043Z,8.50
2023-05-20T19:25:12.800Z,7.77
2023-05-20T19:27:42.173Z,8.17
2023-05-20T19:30:14.560Z,7.83
2023-05-20T19:32:44.317Z,8.13
2023-05-20T19:35:12.990Z,8.20
2023-05-20T19:37:42.265Z,8.40
2023-05-20T19:40:13.619Z,8.47
2023-05-20T19:42:42.276Z,9.37
2023-05-20T19:45:15.775Z,8.40
2023-05-20T19:47:46.626Z,8.40
2023-05-20T19:50:16.052Z,9.53
2023-05-20T19:52:46.494Z,9.30
2023-05-20T19:55:15.243Z,8.27
2023-05-20T19:57:47.069Z,9.27
2023-05-20T20:00:18.019Z,9.87
2023-05-20T20:02:46.779Z,9.40
2023-05-20T20:05:15.988Z,15.70
2023-05-20T20:07:44.981Z,23.33
2023-05-20T20:10:13.795Z,12.87
2023-05-20T20:12:42.975Z,9.10
2023-05-20T20:15:13.291Z,8.43
2023-05-20T20:17:46.028Z,8.10
2023-05-20T20:20:15.537Z,7.30
2023-05-20T20:22:44.748Z,7.50
2023-05-20T20:25:15.925Z,7.60
2023-05-20T20:27:45.156Z,7.77
2023-05-20T20:30:15.669Z,6.80
2023-05-20T20:32:48.277Z,8.87
2023-05-20T20:35:17.274Z,8.50
2023-05-20T20:37:45.858Z,7.53
2023-05-20T20:40:14.980Z,7.43
2023-05-20T20:42:47.338Z,8.77
2023-05-20T20:45:17.298Z,7.73
2023-05-20T20:47:51.251Z,8.40
2023-05-20T20:50:20.085Z,7.73
2023-05-20T20:52:49.192Z,7.70
2023-05-20T20:55:18.168Z,9.00
2023-05-20T20:57:48.102Z,8.20
2023-05-20T21:00:20.930Z,8.37
2023-05-20T21:02:51.623Z,8.20
2023-05-20T21:05:21.710Z,7.90
2023-05-20T21:07:58.521Z,8.00
2023-05-20T21:10:30.781Z,8.00
2023-05-20T21:13:00.498Z,7.53
2023-05-20T21:15:29.426Z,7.77
2023-05-20T21:17:59.855Z,8.30
2023-05-20T21:20:29.089Z,8.67
2023-05-20T21:22:57.891Z,8.33
2023-05-20T21:25:26.427Z,7.53
2023-05-20T21:27:55.142Z,7.43
2023-05-20T21:30:24.855Z,8.07
2023-05-20T21:32:53.252Z,8.47
2023-05-20T21:35:23.326Z,8.13
2023-05-20T21:37:52.584Z,8.70
2023-05-20T21:40:21.713Z,7.70
2023-05-20T21:42:50.549Z,7.13
2023-05-20T21:45:19.471Z,8.40
2023-05-20T21:47:49.295Z,8.03
2023-05-20T21:50:19.213Z,8.77
2023-05-20T21:52:49.656Z,8.27
2023-05-20T21:55:23.885Z,8.70
2023-05-20T21:57:53.052Z,9.10
2023-05-20T22:00:23.318Z,9.97
2023-05-20T22:02:53.140Z,8.70
2023-05-20T22:05:22.622Z,9.20
2023-05-20T22:07:53.353Z,9.57
2023-05-20T22:10:23.555Z,8.77
2023-05-20T22:12:52.191Z,9.27
2023-05-20T22:15:20.942Z,8.70
2023-05-20T22:17:49.608Z,8.93
2023-05-20T22:20:18.691Z,8.67
2023-05-20T22:22:48.205Z,8.40
2023-05-20T22:25:19.097Z,8.60
2023-05-20T22:27:48.469Z,8.93
2023-05-20T22:30:17.351Z,9.00
2023-05-20T22:32:46.236Z,8.93
2023-05-20T22:35:16.634Z,9.63
2023-05-20T22:37:45.679Z,8.77
2023-05-20T22:40:14.736Z,9.13
2023-05-20T22:42:46.685Z,8.83
2023-05-20T22:45:15.188Z,8.17
2023-05-20T22:47:44.353Z,9.40
2023-05-20T22:50:14.411Z,10.03
2023-05-20T22:52:46.593Z,9.73
2023-05-20T22:55:15.128Z,9.53
2023-05-20T22:57:45.478Z,9.63
2023-05-20T23:00:15.700Z,9.10
2023-05-20T23:02:45.748Z,10.80
2023-05-20T23:05:15.186Z,9.43
2023-05-20T23:07:45.127Z,10.33
2023-05-20T23:10:14.960Z,9.10
2023-05-20T23:12:46.629Z,8.30
2023-05-20T23:15:15.970Z,8.87
2023-05-20T23:17:45.130Z,9.30
2023-05-20T23:20:14.693Z,8.70
2023-05-20T23:22:44.113Z,8.80
2023-05-20T23:25:13.147Z,9.10
2023-05-20T23:27:42.229Z,9.63
2023-05-20T23:30:13.561Z,10.03
2023-05-20T23:32:42.775Z,10.00
2023-05-20T23:35:13.297Z,9.30
2023-05-20T23:37:42.423Z,9.30
2023-05-20T23:40:12.036Z,9.37
2023-05-20T23:42:42.143Z,9.00
2023-05-20T23:45:14.476Z,9.77
2023-05-20T23:47:44.010Z,9.20
2023-05-20T23:50:14.545Z,9.20
2023-05-20T23:52:43.264Z,10.27
2023-05-20T23:55:12.912Z,9.10
2023-05-20T23:57:41.868Z,9.17
